Terminal Aerodrome Forecast
Issued by NWS Corpus Christi, TX

Home | Current Version | Previous Version | Text Only | Print | Product List | Glossary On
Versions: 1 2 3 4 5 6 7 8 9 10 11 12 13 14 15 16
000
FTUS44 KCRP 230540
TAFVCT
TAF
KVCT 230540Z 2306/2406 03005KT P6SM OVC025
     FM230900 02005KT P6SM OVC015
     FM231100 08005KT P6SM VCSH OVC025
     FM232000 06010KT P6SM VCTS BKN035CB PROB30 2323/2403 -TSRA
      BKN025CB
     FM240300 34010KT P6SM BKN035=

USA.gov is the U.S. government's official web portal to all federal, state and local government web resources and services.